sensor_id;sensor_type;location;lat;lon;timestamp;temperature;humidity
17236;DHT22;8734;59.272;17.780;2022-08-24T00:01:56;13.50;99.90
17236;DHT22;8734;59.272;17.780;2022-08-24T00:04:25;13.50;99.90
17236;DHT22;8734;59.272;17.780;2022-08-24T00:06:57;13.40;99.90
17236;DHT22;8734;59.272;17.780;2022-08-24T00:09:26;13.40;99.90
17236;DHT22;8734;59.272;17.780;2022-08-24T00:11:54;13.40;99.90
17236;DHT22;8734;59.272;17.780;2022-08-24T00:14:24;13.40;99.90
17236;DHT22;8734;59.272;17.780;2022-08-24T00:16:53;13.50;99.90
17236;DHT22;8734;59.272;17.780;2022-08-24T00:19:22;13.50;99.90
17236;DHT22;8734;59.272;17.780;2022-08-24T00:21:50;13.50;99.90
17236;DHT22;8734;59.272;17.780;2022-08-24T00:24:19;13.50;99.90
17236;DHT22;8734;59.272;17.780;2022-08-24T00:26:48;13.50;99.90
17236;DHT22;8734;59.272;17.780;2022-08-24T00:29:17;13.50;99.90
17236;DHT22;8734;59.272;17.780;2022-08-24T00:31:48;13.60;99.90
17236;DHT22;8734;59.272;17.780;2022-08-24T00:34:16;13.60;99.90
17236;DHT22;8734;59.272;17.780;2022-08-24T00:36:45;13.50;99.90
17236;DHT22;8734;59.272;17.780;2022-08-24T00:39:14;13.50;99.90
17236;DHT22;8734;59.272;17.780;2022-08-24T00:41:44;13.50;99.90
17236;DHT22;8734;59.272;17.780;2022-08-24T00:44:14;13.50;99.90
17236;DHT22;8734;59.272;17.780;2022-08-24T00:46:46;13.40;99.90
17236;DHT22;8734;59.272;17.780;2022-08-24T00:49:22;13.40;99.90
17236;DHT22;8734;59.272;17.780;2022-08-24T00:51:57;13.40;99.90
17236;DHT22;8734;59.272;17.780;2022-08-24T00:54:32;13.40;99.90
17236;DHT22;8734;59.272;17.780;2022-08-24T00:57:04;13.40;99.90
17236;DHT22;8734;59.272;17.780;2022-08-24T00:59:37;13.40;99.90
17236;DHT22;8734;59.272;17.780;2022-08-24T01:02:10;13.40;99.90
17236;DHT22;8734;59.272;17.780;2022-08-24T01:04:46;13.40;99.90
17236;DHT22;8734;59.272;17.780;2022-08-24T01:07:16;13.30;99.90
17236;DHT22;8734;59.272;17.780;2022-08-24T01:09:46;13.30;99.90
17236;DHT22;8734;59.272;17.780;2022-08-24T01:12:15;13.30;99.90
17236;DHT22;8734;59.272;17.780;2022-08-24T01:14:44;13.30;99.90
17236;DHT22;8734;59.272;17.780;2022-08-24T01:17:12;13.20;99.90
17236;DHT22;8734;59.272;17.780;2022-08-24T01:20:08;13.20;99.90
17236;DHT22;8734;59.272;17.780;2022-08-24T01:23:00;13.20;99.90
17236;DHT22;8734;59.272;17.780;2022-08-24T01:25:31;13.20;99.90
17236;DHT22;8734;59.272;17.780;2022-08-24T01:28:06;13.20;99.90
17236;DHT22;8734;59.272;17.780;2022-08-24T01:30:36;13.10;99.90
17236;DHT22;8734;59.272;17.780;2022-08-24T01:33:07;13.10;99.90
17236;DHT22;8734;59.272;17.780;2022-08-24T01:35:37;13.10;99.90
17236;DHT22;8734;59.272;17.780;2022-08-24T01:38:08;13.10;99.90
17236;DHT22;8734;59.272;17.780;2022-08-24T01:40:46;13.00;99.90
17236;DHT22;8734;59.272;17.780;2022-08-24T01:43:15;13.00;99.90
17236;DHT22;8734;59.272;17.780;2022-08-24T01:45:44;13.00;99.90
17236;DHT22;8734;59.272;17.780;2022-08-24T01:48:12;13.00;99.90
17236;DHT22;8734;59.272;17.780;2022-08-24T01:50:49;12.90;99.90
17236;DHT22;8734;59.272;17.780;2022-08-24T01:53:18;12.80;99.90
17236;DHT22;8734;59.272;17.780;2022-08-24T01:55:48;12.80;99.90
17236;DHT22;8734;59.272;17.780;2022-08-24T01:58:17;12.70;99.90
17236;DHT22;8734;59.272;17.780;2022-08-24T02:00:46;12.70;99.90
17236;DHT22;8734;59.272;17.780;2022-08-24T02:03:14;12.60;99.90
17236;DHT22;8734;59.272;17.780;2022-08-24T02:05:43;12.60;99.90
17236;DHT22;8734;59.272;17.780;2022-08-24T02:08:11;12.60;99.90
17236;DHT22;8734;59.272;17.780;2022-08-24T02:10:40;12.60;99.90
17236;DHT22;8734;59.272;17.780;2022-08-24T02:13:23;12.60;99.90
17236;DHT22;8734;59.272;17.780;2022-08-24T02:15:54;12.50;99.90
17236;DHT22;8734;59.272;17.780;2022-08-24T02:18:24;12.50;99.90
17236;DHT22;8734;59.272;17.780;2022-08-24T02:20:52;12.40;99.90
17236;DHT22;8734;59.272;17.780;2022-08-24T02:23:20;12.40;99.90
17236;DHT22;8734;59.272;17.780;2022-08-24T02:25:49;12.30;99.90
17236;DHT22;8734;59.272;17.780;2022-08-24T02:28:18;12.30;99.90
17236;DHT22;8734;59.272;17.780;2022-08-24T02:30:48;12.30;99.90
17236;DHT22;8734;59.272;17.780;2022-08-24T02:33:17;12.30;99.90
17236;DHT22;8734;59.272;17.780;2022-08-24T02:35:45;12.30;99.90
17236;DHT22;8734;59.272;17.780;2022-08-24T02:38:14;12.30;99.90
17236;DHT22;8734;59.272;17.780;2022-08-24T02:40:42;12.20;99.90
17236;DHT22;8734;59.272;17.780;2022-08-24T02:43:11;12.20;99.90
17236;DHT22;8734;59.272;17.780;2022-08-24T02:45:41;12.20;99.90
17236;DHT22;8734;59.272;17.780;2022-08-24T02:48:17;12.10;99.90
17236;DHT22;8734;59.272;17.780;2022-08-24T02:50:48;12.10;99.90
17236;DHT22;8734;59.272;17.780;2022-08-24T02:53:19;12.10;99.90
17236;DHT22;8734;59.272;17.780;2022-08-24T02:55:48;12.10;99.90
17236;DHT22;8734;59.272;17.780;2022-08-24T02:58:16;12.10;99.90
17236;DHT22;8734;59.272;17.780;2022-08-24T03:00:46;12.00;99.90
17236;DHT22;8734;59.272;17.780;2022-08-24T03:03:17;12.00;99.90
17236;DHT22;8734;59.272;17.780;2022-08-24T03:05:45;12.00;99.90
17236;DHT22;8734;59.272;17.780;2022-08-24T03:08:13;12.00;99.90
17236;DHT22;8734;59.272;17.780;2022-08-24T03:10:42;11.90;99.90
17236;DHT22;8734;59.272;17.780;2022-08-24T03:13:10;11.90;99.90
17236;DHT22;8734;59.272;17.780;2022-08-24T03:15:38;11.90;99.90
17236;DHT22;8734;59.272;17.780;2022-08-24T03:18:07;11.90;99.90
17236;DHT22;8734;59.272;17.780;2022-08-24T03:20:37;11.90;99.90
17236;DHT22;8734;59.272;17.780;2022-08-24T03:23:05;11.90;99.90
17236;DHT22;8734;59.272;17.780;2022-08-24T03:25:34;11.90;99.90
17236;DHT22;8734;59.272;17.780;2022-08-24T03:28:02;11.80;99.90
17236;DHT22;8734;59.272;17.780;2022-08-24T03:30:37;11.80;99.90
17236;DHT22;8734;59.272;17.780;2022-08-24T03:33:12;11.80;99.90
17236;DHT22;8734;59.272;17.780;2022-08-24T03:35:42;11.80;99.90
17236;DHT22;8734;59.272;17.780;2022-08-24T03:38:11;11.80;99.90
17236;DHT22;8734;59.272;17.780;2022-08-24T03:40:40;11.80;99.90
17236;DHT22;8734;59.272;17.780;2022-08-24T03:43:09;11.80;99.90
17236;DHT22;8734;59.272;17.780;2022-08-24T03:45:58;11.80;99.90
17236;DHT22;8734;59.272;17.780;2022-08-24T03:48:28;11.80;99.90
17236;DHT22;8734;59.272;17.780;2022-08-24T03:50:57;11.80;99.90
17236;DHT22;8734;59.272;17.780;2022-08-24T03:53:26;11.80;99.90
17236;DHT22;8734;59.272;17.780;2022-08-24T03:55:54;11.80;99.90
17236;DHT22;8734;59.272;17.780;2022-08-24T03:58:22;11.80;99.90
17236;DHT22;8734;59.272;17.780;2022-08-24T04:00:54;11.80;99.90
17236;DHT22;8734;59.272;17.780;2022-08-24T04:03:22;11.80;99.90
17236;DHT22;8734;59.272;17.780;2022-08-24T04:05:52;11.90;99.90
17236;DHT22;8734;59.272;17.780;2022-08-24T04:08:22;11.80;99.90
17236;DHT22;8734;59.272;17.780;2022-08-24T04:10:50;11.90;99.90
17236;DHT22;8734;59.272;17.780;2022-08-24T04:13:19;11.80;99.90
17236;DHT22;8734;59.272;17.780;2022-08-24T04:15:47;11.90;99.90
17236;DHT22;8734;59.272;17.780;2022-08-24T04:18:18;11.90;99.90
17236;DHT22;8734;59.272;17.780;2022-08-24T04:20:51;11.90;99.90
17236;DHT22;8734;59.272;17.780;2022-08-24T04:23:19;11.90;99.90
17236;DHT22;8734;59.272;17.780;2022-08-24T04:26:01;11.90;99.90
17236;DHT22;8734;59.272;17.780;2022-08-24T04:28:30;11.90;99.90
17236;DHT22;8734;59.272;17.780;2022-08-24T04:30:58;12.00;99.90
17236;DHT22;8734;59.272;17.780;2022-08-24T04:33:27;12.00;99.90
17236;DHT22;8734;59.272;17.780;2022-08-24T04:35:55;12.00;99.90
17236;DHT22;8734;59.272;17.780;2022-08-24T04:38:23;12.10;99.90
17236;DHT22;8734;59.272;17.780;2022-08-24T04:40:52;12.10;99.90
17236;DHT22;8734;59.272;17.780;2022-08-24T04:43:27;12.20;99.90
17236;DHT22;8734;59.272;17.780;2022-08-24T04:45:57;12.40;99.90
17236;DHT22;8734;59.272;17.780;2022-08-24T04:48:25;12.60;99.90
17236;DHT22;8734;59.272;17.780;2022-08-24T04:50:54;12.70;99.90
17236;DHT22;8734;59.272;17.780;2022-08-24T04:53:22;12.90;99.90
17236;DHT22;8734;59.272;17.780;2022-08-24T04:55:51;13.10;99.90
17236;DHT22;8734;59.272;17.780;2022-08-24T04:58:20;13.20;99.90
17236;DHT22;8734;59.272;17.780;2022-08-24T05:00:49;13.30;99.90
17236;DHT22;8734;59.272;17.780;2022-08-24T05:03:18;13.30;99.90
17236;DHT22;8734;59.272;17.780;2022-08-24T05:05:49;13.30;99.90
17236;DHT22;8734;59.272;17.780;2022-08-24T05:08:19;13.40;99.90
17236;DHT22;8734;59.272;17.780;2022-08-24T05:10:48;13.40;99.90
17236;DHT22;8734;59.272;17.780;2022-08-24T05:13:18;13.50;99.90
17236;DHT22;8734;59.272;17.780;2022-08-24T05:15:48;13.50;99.90
17236;DHT22;8734;59.272;17.780;2022-08-24T05:18:17;13.50;99.90
17236;DHT22;8734;59.272;17.780;2022-08-24T05:20:46;13.40;99.90
17236;DHT22;8734;59.272;17.780;2022-08-24T05:23:14;13.40;99.90
17236;DHT22;8734;59.272;17.780;2022-08-24T05:25:45;13.40;99.90
17236;DHT22;8734;59.272;17.780;2022-08-24T05:28:13;13.40;99.90
17236;DHT22;8734;59.272;17.780;2022-08-24T05:30:42;13.40;99.90
17236;DHT22;8734;59.272;17.780;2022-08-24T05:33:12;13.50;99.90
17236;DHT22;8734;59.272;17.780;2022-08-24T05:35:40;13.70;99.90
17236;DHT22;8734;59.272;17.780;2022-08-24T05:38:10;14.10;99.90
17236;DHT22;8734;59.272;17.780;2022-08-24T05:40:39;14.30;99.90
17236;DHT22;8734;59.272;17.780;2022-08-24T05:43:08;14.40;99.90
17236;DHT22;8734;59.272;17.780;2022-08-24T05:45:36;14.50;99.90
17236;DHT22;8734;59.272;17.780;2022-08-24T05:48:08;14.50;99.90
17236;DHT22;8734;59.272;17.780;2022-08-24T05:50:37;14.70;99.90
17236;DHT22;8734;59.272;17.780;2022-08-24T05:53:06;14.80;99.90
17236;DHT22;8734;59.272;17.780;2022-08-24T05:55:36;15.00;99.90
17236;DHT22;8734;59.272;17.780;2022-08-24T05:58:05;15.10;99.90
17236;DHT22;8734;59.272;17.780;2022-08-24T06:00:36;15.20;99.90
17236;DHT22;8734;59.272;17.780;2022-08-24T06:03:05;15.30;99.90
17236;DHT22;8734;59.272;17.780;2022-08-24T06:05:42;15.40;99.90
17236;DHT22;8734;59.272;17.780;2022-08-24T06:08:11;15.50;99.90
17236;DHT22;8734;59.272;17.780;2022-08-24T06:10:40;15.60;99.90
17236;DHT22;8734;59.272;17.780;2022-08-24T06:13:09;15.60;99.90
17236;DHT22;8734;59.272;17.780;2022-08-24T06:15:38;15.60;99.90
17236;DHT22;8734;59.272;17.780;2022-08-24T06:18:11;15.70;99.90
17236;DHT22;8734;59.272;17.780;2022-08-24T06:20:41;15.80;99.90
17236;DHT22;8734;59.272;17.780;2022-08-24T06:23:12;15.80;99.90
17236;DHT22;8734;59.272;17.780;2022-08-24T06:25:40;16.00;99.90
17236;DHT22;8734;59.272;17.780;2022-08-24T06:28:26;16.10;99.90
17236;DHT22;8734;59.272;17.780;2022-08-24T06:31:01;16.30;99.90
17236;DHT22;8734;59.272;17.780;2022-08-24T06:33:30;16.40;99.90
17236;DHT22;8734;59.272;17.780;2022-08-24T06:35:59;16.50;99.90
17236;DHT22;8734;59.272;17.780;2022-08-24T06:38:29;16.60;99.90
17236;DHT22;8734;59.272;17.780;2022-08-24T06:40:57;16.70;99.90
17236;DHT22;8734;59.272;17.780;2022-08-24T06:43:26;16.70;99.90
17236;DHT22;8734;59.272;17.780;2022-08-24T06:45:56;16.80;99.90
17236;DHT22;8734;59.272;17.780;2022-08-24T06:48:25;16.90;99.90
17236;DHT22;8734;59.272;17.780;2022-08-24T06:50:54;17.00;99.90
17236;DHT22;8734;59.272;17.780;2022-08-24T06:53:23;17.00;99.90
17236;DHT22;8734;59.272;17.780;2022-08-24T06:55:54;17.10;99.90
17236;DHT22;8734;59.272;17.780;2022-08-24T06:58:25;17.10;99.90
17236;DHT22;8734;59.272;17.780;2022-08-24T07:00:54;17.00;99.90
17236;DHT22;8734;59.272;17.780;2022-08-24T07:03:23;17.10;99.90
17236;DHT22;8734;59.272;17.780;2022-08-24T07:05:53;17.10;99.90
17236;DHT22;8734;59.272;17.780;2022-08-24T07:08:24;17.20;99.90
17236;DHT22;8734;59.272;17.780;2022-08-24T07:10:52;17.20;99.90
17236;DHT22;8734;59.272;17.780;2022-08-24T07:13:21;17.10;99.90
17236;DHT22;8734;59.272;17.780;2022-08-24T07:15:51;17.20;99.90
17236;DHT22;8734;59.272;17.780;2022-08-24T07:18:20;17.20;99.90
17236;DHT22;8734;59.272;17.780;2022-08-24T07:20:49;17.20;99.90
17236;DHT22;8734;59.272;17.780;2022-08-24T07:23:19;17.20;99.90
17236;DHT22;8734;59.272;17.780;2022-08-24T07:25:48;17.20;99.90
17236;DHT22;8734;59.272;17.780;2022-08-24T07:28:22;17.20;99.90
17236;DHT22;8734;59.272;17.780;2022-08-24T07:30:57;17.30;99.90
17236;DHT22;8734;59.272;17.780;2022-08-24T07:33:26;17.30;99.90
17236;DHT22;8734;59.272;17.780;2022-08-24T07:35:54;17.40;99.90
17236;DHT22;8734;59.272;17.780;2022-08-24T07:38:22;17.50;99.90
17236;DHT22;8734;59.272;17.780;2022-08-24T07:40:52;17.60;99.90
17236;DHT22;8734;59.272;17.780;2022-08-24T07:43:41;17.70;99.90
17236;DHT22;8734;59.272;17.780;2022-08-24T07:46:09;17.90;99.90
17236;DHT22;8734;59.272;17.780;2022-08-24T07:48:39;18.00;99.90
17236;DHT22;8734;59.272;17.780;2022-08-24T07:51:08;18.20;99.90
17236;DHT22;8734;59.272;17.780;2022-08-24T07:53:37;18.30;99.90
17236;DHT22;8734;59.272;17.780;2022-08-24T07:56:21;18.30;99.90
17236;DHT22;8734;59.272;17.780;2022-08-24T07:58:49;18.40;99.90
17236;DHT22;8734;59.272;17.780;2022-08-24T08:01:20;18.70;99.90
17236;DHT22;8734;59.272;17.780;2022-08-24T08:03:49;19.30;99.90
17236;DHT22;8734;59.272;17.780;2022-08-24T08:06:18;19.90;99.90
17236;DHT22;8734;59.272;17.780;2022-08-24T08:08:46;20.00;99.90
17236;DHT22;8734;59.272;17.780;2022-08-24T08:11:14;20.10;99.90
17236;DHT22;8734;59.272;17.780;2022-08-24T08:13:44;19.80;99.90
17236;DHT22;8734;59.272;17.780;2022-08-24T08:16:12;19.20;99.90
17236;DHT22;8734;59.272;17.780;2022-08-24T08:18:41;19.10;99.90
17236;DHT22;8734;59.272;17.780;2022-08-24T08:21:11;19.10;99.90
17236;DHT22;8734;59.272;17.780;2022-08-24T08:23:54;19.50;99.90
17236;DHT22;8734;59.272;17.780;2022-08-24T08:26:37;20.00;99.90
17236;DHT22;8734;59.272;17.780;2022-08-24T08:29:07;20.70;99.90
17236;DHT22;8734;59.272;17.780;2022-08-24T08:31:36;21.10;99.90
17236;DHT22;8734;59.272;17.780;2022-08-24T08:34:06;21.20;99.90
17236;DHT22;8734;59.272;17.780;2022-08-24T08:36:35;21.20;99.90
17236;DHT22;8734;59.272;17.780;2022-08-24T08:39:06;21.40;99.90
17236;DHT22;8734;59.272;17.780;2022-08-24T08:44:47;22.00;99.90
17236;DHT22;8734;59.272;17.780;2022-08-24T08:47:57;22.20;99.90
17236;DHT22;8734;59.272;17.780;2022-08-24T08:50:43;22.00;99.90
17236;DHT22;8734;59.272;17.780;2022-08-24T08:56:34;21.60;99.90
17236;DHT22;8734;59.272;17.780;2022-08-24T08:59:16;22.40;99.90
17236;DHT22;8734;59.272;17.780;2022-08-24T09:02:00;22.50;99.90
17236;DHT22;8734;59.272;17.780;2022-08-24T09:04:53;22.30;99.90
17236;DHT22;8734;59.272;17.780;2022-08-24T09:07:40;22.20;99.90
17236;DHT22;8734;59.272;17.780;2022-08-24T09:10:32;21.80;99.90
17236;DHT22;8734;59.272;17.780;2022-08-24T09:13:15;22.30;99.90
17236;DHT22;8734;59.272;17.780;2022-08-24T09:15:55;22.40;99.90
17236;DHT22;8734;59.272;17.780;2022-08-24T09:18:39;22.60;99.90
17236;DHT22;8734;59.272;17.780;2022-08-24T09:21:36;22.90;99.90
17236;DHT22;8734;59.272;17.780;2022-08-24T09:27:05;22.80;99.90
17236;DHT22;8734;59.272;17.780;2022-08-24T09:29:47;23.10;99.90
17236;DHT22;8734;59.272;17.780;2022-08-24T09:35:42;23.60;99.90
17236;DHT22;8734;59.272;17.780;2022-08-24T09:38:22;23.70;99.90
17236;DHT22;8734;59.272;17.780;2022-08-24T09:41:14;24.00;99.90
17236;DHT22;8734;59.272;17.780;2022-08-24T09:44:10;24.10;99.90
17236;DHT22;8734;59.272;17.780;2022-08-24T09:53:24;23.00;99.90
17236;DHT22;8734;59.272;17.780;2022-08-24T09:56:16;22.70;99.90
17236;DHT22;8734;59.272;17.780;2022-08-24T09:58:59;22.40;99.90
17236;DHT22;8734;59.272;17.780;2022-08-24T10:01:34;22.30;99.90
17236;DHT22;8734;59.272;17.780;2022-08-24T10:04:10;22.10;99.90
17236;DHT22;8734;59.272;17.780;2022-08-24T10:06:49;22.60;99.90
17236;DHT22;8734;59.272;17.780;2022-08-24T10:09:35;23.10;99.90
17236;DHT22;8734;59.272;17.780;2022-08-24T10:12:17;23.70;99.90
17236;DHT22;8734;59.272;17.780;2022-08-24T10:14:52;24.80;99.90
17236;DHT22;8734;59.272;17.780;2022-08-24T10:17:34;25.50;99.90
17236;DHT22;8734;59.272;17.780;2022-08-24T10:20:17;26.30;99.90
17236;DHT22;8734;59.272;17.780;2022-08-24T10:23:04;25.80;99.90
17236;DHT22;8734;59.272;17.780;2022-08-24T10:25:44;25.10;99.90
17236;DHT22;8734;59.272;17.780;2022-08-24T10:28:36;24.40;99.90
17236;DHT22;8734;59.272;17.780;2022-08-24T10:31:08;25.70;99.90
17236;DHT22;8734;59.272;17.780;2022-08-24T10:33:53;26.90;99.90
17236;DHT22;8734;59.272;17.780;2022-08-24T10:40:02;27.80;99.90
17236;DHT22;8734;59.272;17.780;2022-08-24T10:42:54;28.50;99.90
17236;DHT22;8734;59.272;17.780;2022-08-24T10:55:34;27.30;98.10
17236;DHT22;8734;59.272;17.780;2022-08-24T10:58:26;28.10;98.50
17236;DHT22;8734;59.272;17.780;2022-08-24T11:01:13;28.60;97.20
17236;DHT22;8734;59.272;17.780;2022-08-24T11:03:54;28.90;97.60
17236;DHT22;8734;59.272;17.780;2022-08-24T11:06:30;30.00;96.30
17236;DHT22;8734;59.272;17.780;2022-08-24T11:09:04;30.60;94.40
17236;DHT22;8734;59.272;17.780;2022-08-24T11:11:34;30.70;94.10
17236;DHT22;8734;59.272;17.780;2022-08-24T11:14:22;30.50;93.70
17236;DHT22;8734;59.272;17.780;2022-08-24T11:16:50;30.00;93.50
17236;DHT22;8734;59.272;17.780;2022-08-24T11:19:33;30.30;96.70
17236;DHT22;8734;59.272;17.780;2022-08-24T11:22:04;30.10;93.50
17236;DHT22;8734;59.272;17.780;2022-08-24T11:24:41;30.90;95.20
17236;DHT22;8734;59.272;17.780;2022-08-24T11:27:25;31.60;91.90
17236;DHT22;8734;59.272;17.780;2022-08-24T11:30:00;32.20;90.70
17236;DHT22;8734;59.272;17.780;2022-08-24T11:32:32;31.90;90.50
17236;DHT22;8734;59.272;17.780;2022-08-24T11:35:07;31.30;90.30
17236;DHT22;8734;59.272;17.780;2022-08-24T11:37:37;31.20;90.20
17236;DHT22;8734;59.272;17.780;2022-08-24T11:40:07;30.00;91.20
17236;DHT22;8734;59.272;17.780;2022-08-24T11:42:47;30.50;91.50
17236;DHT22;8734;59.272;17.780;2022-08-24T11:45:26;31.30;90.20
17236;DHT22;8734;59.272;17.780;2022-08-24T11:48:22;30.30;89.80
17236;DHT22;8734;59.272;17.780;2022-08-24T11:50:58;30.70;90.60
17236;DHT22;8734;59.272;17.780;2022-08-24T11:53:36;31.50;88.90
17236;DHT22;8734;59.272;17.780;2022-08-24T11:56:13;31.70;88.60
17236;DHT22;8734;59.272;17.780;2022-08-24T11:58:52;31.70;88.00
17236;DHT22;8734;59.272;17.780;2022-08-24T12:01:27;31.90;87.60
17236;DHT22;8734;59.272;17.780;2022-08-24T12:04:08;31.60;87.10
17236;DHT22;8734;59.272;17.780;2022-08-24T12:06:49;31.80;86.90
17236;DHT22;8734;59.272;17.780;2022-08-24T12:09:35;31.50;86.60
17236;DHT22;8734;59.272;17.780;2022-08-24T12:12:12;30.70;88.40
17236;DHT22;8734;59.272;17.780;2022-08-24T12:14:46;29.80;89.50
17236;DHT22;8734;59.272;17.780;2022-08-24T12:17:29;29.90;92.00
17236;DHT22;8734;59.272;17.780;2022-08-24T12:20:08;30.50;90.10
17236;DHT22;8734;59.272;17.780;2022-08-24T12:22:39;29.90;90.10
17236;DHT22;8734;59.272;17.780;2022-08-24T12:25:09;30.80;89.60
17236;DHT22;8734;59.272;17.780;2022-08-24T12:27:54;32.40;87.10
17236;DHT22;8734;59.272;17.780;2022-08-24T12:30:25;32.40;90.70
17236;DHT22;8734;59.272;17.780;2022-08-24T12:32:57;32.80;84.90
17236;DHT22;8734;59.272;17.780;2022-08-24T12:35:33;33.40;83.50
17236;DHT22;8734;59.272;17.780;2022-08-24T12:38:05;33.50;82.80
17236;DHT22;8734;59.272;17.780;2022-08-24T12:40:39;33.80;81.50
17236;DHT22;8734;59.272;17.780;2022-08-24T12:43:13;33.70;84.40
17236;DHT22;8734;59.272;17.780;2022-08-24T12:45:45;34.60;79.10
17236;DHT22;8734;59.272;17.780;2022-08-24T12:48:19;35.10;76.40
17236;DHT22;8734;59.272;17.780;2022-08-24T12:51:01;33.70;77.00
17236;DHT22;8734;59.272;17.780;2022-08-24T12:53:50;33.30;79.20
17236;DHT22;8734;59.272;17.780;2022-08-24T12:59:36;32.20;80.60
17236;DHT22;8734;59.272;17.780;2022-08-24T13:02:25;31.20;82.30
17236;DHT22;8734;59.272;17.780;2022-08-24T13:04:57;31.70;85.30
17236;DHT22;8734;59.272;17.780;2022-08-24T13:07:29;31.10;83.50
17236;DHT22;8734;59.272;17.780;2022-08-24T13:10:09;31.00;87.80
17236;DHT22;8734;59.272;17.780;2022-08-24T13:15:54;29.10;87.70
17236;DHT22;8734;59.272;17.780;2022-08-24T13:18:46;27.70;91.60
17236;DHT22;8734;59.272;17.780;2022-08-24T13:21:39;27.30;92.40
17236;DHT22;8734;59.272;17.780;2022-08-24T13:33:32;25.00;97.00
17236;DHT22;8734;59.272;17.780;2022-08-24T13:36:05;24.40;98.50
17236;DHT22;8734;59.272;17.780;2022-08-24T13:38:59;24.30;99.10
17236;DHT22;8734;59.272;17.780;2022-08-24T13:41:44;24.60;99.90
17236;DHT22;8734;59.272;17.780;2022-08-24T13:44:23;24.70;99.90
17236;DHT22;8734;59.272;17.780;2022-08-24T13:47:04;24.30;99.90
17236;DHT22;8734;59.272;17.780;2022-08-24T13:49:54;23.80;99.90
17236;DHT22;8734;59.272;17.780;2022-08-24T13:52:39;23.60;99.90
17236;DHT22;8734;59.272;17.780;2022-08-24T13:55:27;23.20;99.90
17236;DHT22;8734;59.272;17.780;2022-08-24T13:58:14;23.10;99.90
17236;DHT22;8734;59.272;17.780;2022-08-24T14:00:50;23.10;99.90
17236;DHT22;8734;59.272;17.780;2022-08-24T14:06:20;23.10;99.90
17236;DHT22;8734;59.272;17.780;2022-08-24T14:08:59;23.00;99.90
17236;DHT22;8734;59.272;17.780;2022-08-24T14:11:44;23.10;99.90
17236;DHT22;8734;59.272;17.780;2022-08-24T14:14:20;23.20;99.90
17236;DHT22;8734;59.272;17.780;2022-08-24T14:17:06;23.10;99.90
17236;DHT22;8734;59.272;17.780;2022-08-24T14:20:04;23.10;99.90
17236;DHT22;8734;59.272;17.780;2022-08-24T14:22:39;23.10;99.90
17236;DHT22;8734;59.272;17.780;2022-08-24T14:25:18;23.10;99.90
17236;DHT22;8734;59.272;17.780;2022-08-24T14:27:50;23.30;99.90
17236;DHT22;8734;59.272;17.780;2022-08-24T14:30:46;23.30;99.90
17236;DHT22;8734;59.272;17.780;2022-08-24T14:33:28;23.50;99.90
17236;DHT22;8734;59.272;17.780;2022-08-24T14:36:14;23.70;99.90
17236;DHT22;8734;59.272;17.780;2022-08-24T14:39:01;23.80;99.90
17236;DHT22;8734;59.272;17.780;2022-08-24T14:41:49;23.90;99.90
17236;DHT22;8734;59.272;17.780;2022-08-24T14:44:47;23.90;99.90
17236;DHT22;8734;59.272;17.780;2022-08-24T14:47:30;24.00;99.90
17236;DHT22;8734;59.272;17.780;2022-08-24T14:50:06;24.10;99.90
17236;DHT22;8734;59.272;17.780;2022-08-24T14:53:02;24.00;99.90
17236;DHT22;8734;59.272;17.780;2022-08-24T14:55:37;23.90;99.90
17236;DHT22;8734;59.272;17.780;2022-08-24T14:58:16;24.10;99.90
17236;DHT22;8734;59.272;17.780;2022-08-24T15:01:01;24.10;99.90
17236;DHT22;8734;59.272;17.780;2022-08-24T15:03:46;24.00;99.90
17236;DHT22;8734;59.272;17.780;2022-08-24T15:06:23;23.90;99.90
17236;DHT22;8734;59.272;17.780;2022-08-24T15:09:07;23.80;99.90
17236;DHT22;8734;59.272;17.780;2022-08-24T15:11:38;23.80;99.90
17236;DHT22;8734;59.272;17.780;2022-08-24T15:14:19;23.90;99.90
17236;DHT22;8734;59.272;17.780;2022-08-24T15:16:52;23.90;99.90
17236;DHT22;8734;59.272;17.780;2022-08-24T15:19:34;23.90;99.90
17236;DHT22;8734;59.272;17.780;2022-08-24T15:22:11;23.90;99.90
17236;DHT22;8734;59.272;17.780;2022-08-24T15:24:44;24.00;99.90
17236;DHT22;8734;59.272;17.780;2022-08-24T15:27:23;23.80;99.90
17236;DHT22;8734;59.272;17.780;2022-08-24T15:29:57;23.70;99.90
17236;DHT22;8734;59.272;17.780;2022-08-24T15:32:41;23.50;99.90
17236;DHT22;8734;59.272;17.780;2022-08-24T15:35:23;23.50;99.90
17236;DHT22;8734;59.272;17.780;2022-08-24T15:37:52;23.40;99.90
17236;DHT22;8734;59.272;17.780;2022-08-24T15:40:24;23.40;99.90
17236;DHT22;8734;59.272;17.780;2022-08-24T15:42:56;23.50;99.90
17236;DHT22;8734;59.272;17.780;2022-08-24T15:45:30;23.50;99.90
17236;DHT22;8734;59.272;17.780;2022-08-24T15:48:01;23.50;99.90
17236;DHT22;8734;59.272;17.780;2022-08-24T15:50:34;23.60;99.90
17236;DHT22;8734;59.272;17.780;2022-08-24T15:53:08;23.70;99.90
17236;DHT22;8734;59.272;17.780;2022-08-24T15:55:51;23.70;99.90
17236;DHT22;8734;59.272;17.780;2022-08-24T15:58:29;23.60;99.90
17236;DHT22;8734;59.272;17.780;2022-08-24T16:01:01;23.50;99.90
17236;DHT22;8734;59.272;17.780;2022-08-24T16:04:06;23.40;99.90
17236;DHT22;8734;59.272;17.780;2022-08-24T16:06:38;23.30;99.90
17236;DHT22;8734;59.272;17.780;2022-08-24T16:09:12;23.30;99.90
17236;DHT22;8734;59.272;17.780;2022-08-24T16:11:42;23.30;99.90
17236;DHT22;8734;59.272;17.780;2022-08-24T16:14:14;23.20;99.90
17236;DHT22;8734;59.272;17.780;2022-08-24T16:16:51;23.30;99.90
17236;DHT22;8734;59.272;17.780;2022-08-24T16:19:27;23.20;99.90
17236;DHT22;8734;59.272;17.780;2022-08-24T16:21:58;23.20;99.90
17236;DHT22;8734;59.272;17.780;2022-08-24T16:24:30;23.20;99.90
17236;DHT22;8734;59.272;17.780;2022-08-24T16:27:05;23.10;99.90
17236;DHT22;8734;59.272;17.780;2022-08-24T16:29:49;23.00;99.90
17236;DHT22;8734;59.272;17.780;2022-08-24T16:32:21;23.00;99.90
17236;DHT22;8734;59.272;17.780;2022-08-24T16:35:17;23.00;99.90
17236;DHT22;8734;59.272;17.780;2022-08-24T16:37:46;23.10;99.90
17236;DHT22;8734;59.272;17.780;2022-08-24T16:40:15;23.10;99.90
17236;DHT22;8734;59.272;17.780;2022-08-24T16:42:43;23.10;99.90
17236;DHT22;8734;59.272;17.780;2022-08-24T16:45:16;23.00;99.90
17236;DHT22;8734;59.272;17.780;2022-08-24T16:47:45;22.90;99.90
17236;DHT22;8734;59.272;17.780;2022-08-24T16:50:17;22.80;99.90
17236;DHT22;8734;59.272;17.780;2022-08-24T16:52:46;22.80;99.90
17236;DHT22;8734;59.272;17.780;2022-08-24T16:55:14;22.70;99.90
17236;DHT22;8734;59.272;17.780;2022-08-24T16:57:43;22.70;99.90
17236;DHT22;8734;59.272;17.780;2022-08-24T17:00:16;22.70;99.90
17236;DHT22;8734;59.272;17.780;2022-08-24T17:02:48;22.60;99.90
17236;DHT22;8734;59.272;17.780;2022-08-24T17:05:18;22.60;99.90
17236;DHT22;8734;59.272;17.780;2022-08-24T17:07:47;22.60;99.90